André Pereira

Scout - Fluminense
3 Apr 2027
Samstag
Verarbeitung

Persönlichkeit

Anpassungsfähigkeit (3) Ehrgeiz (3) Kontroverse (12) Loyalität (7) Druck (14) Professionalität (12) Fairness (7) Temperament (8)

Profil

Trainerstil Demokratisch
Lizenz Kontinentale B
Entschlossenheit 10
Menschenführung 5
Motivation 7
Disziplin 15
Arbeitszufriedenheit
100%
Ermüdung
0%
Rolle Scout
Gehalt 114.4K p/W
Vertrag 14.03.2028

Leistung

Verhalten Gut
Trainingseffektivität
43%
Spielerentwicklung
25%
Verletzungsprävention
40%
Taktische Umsetzung
40%

Letzte Ereignisse

Nahm an einer Scouting-Besprechung teil jetzt
Empfahl ein Transferziel jetzt
Spieler begutachtet 7T her
Spieler begutachtet 7T her
Spieler begutachtet 7T her
Spieler begutachtet 7T her
Spieler begutachtet 7T her
Spieler begutachtet 7T her

Aktuell beobachtet

181
Spieler Verein Status Fähigkeit Vertrauen Beobachtet Zuletzt beobachtet Letzte Stimme
João Palhinha Benfica Aktiv 158 / 148 40% 8 30.03.2027 -
Hwang In-Beom Porto Aktiv 142 / 152 40% 4 30.03.2027 -
Carlos Rodríguez Cruz Azul Aktiv 132 / 145 40% 4 30.03.2027 -
Jonathan Arteaga Veracruz Aktiv 111 / 111 40% 1 30.03.2027 -
Bernardo Lima Porto Aktiv 90 / 104 40% 1 30.03.2027 -
Radek Vítek Middlesbrough Aktiv 144 / 133 40% 7 28.03.2027 -
Adriel Torreense Aktiv 120 / 121 40% 4 28.03.2027 -
Marquinhos Spartak Moscow Aktiv 130 / 129 40% 5 28.03.2027 -
José Paradela Cruz Azul Aktiv 146 / 131 40% 3 28.03.2027 -
Egoitz Arana Real Sociedad Aktiv 105 / 117 40% 3 28.03.2027 -
Diogo Gonçalves Konyaspor Aktiv 125 / 117 40% 1 28.03.2027 -
Louis Leroux FC Nantes Aktiv 122 / 129 40% 3 26.03.2027 -
Martim Fernandes Porto Aktiv 142 / 128 40% 1 26.03.2027 -
Eduardo Felicíssimo Sporting CP Aktiv 105 / 125 40% 1 26.03.2027 -
Cesar Corona Veracruz Aktiv 139 / 130 40% 12 24.03.2027 -
Luis Romo Guadalajara Aktiv 144 / 145 40% 4 24.03.2027 -
Murphy Cooper Plymouth Argyle Aktiv 116 / 121 40% 5 24.03.2027 -
Lukáš Provod Slavia Prague Aktiv 144 / 141 40% 5 24.03.2027 -
Axel Openda KV Oostende Aktiv 138 / 132 40% 4 23.03.2027 -
Haissem Hassan Bloemfontein Celtic Aktiv 129 / 143 40% 5 23.03.2027 -
Brian Rodríguez Club America Aktiv 132 / 135 40% 1 23.03.2027 -
Andrea Colpani Monza Aktiv 133 / 133 40% 2 22.03.2027 -
Sebastián Córdova Pumas UNAM Aktiv 129 / 136 40% 1 22.03.2027 -
Dany Mota Monza Aktiv 141 / 131 40% 2 21.03.2027 -
Rabby Nzingoula West Bromwich Albion Aktiv 117 / 120 40% 2 21.03.2027 -
Luca Orellano Monterrey Aktiv 133 / 125 40% 1 21.03.2027 -
Tiago Freitas Benfica Aktiv 104 / 120 40% 1 21.03.2027 -
Bernardo Fontes Braga Aktiv 122 / 138 40% 5 18.03.2027 -
Gabriel Brazão Santos Aktiv 131 / 129 40% 5 18.03.2027 -
Martim Cunha Porto Aktiv 99 / 104 40% 3 18.03.2027 -
José Pachuca Puebla Aktiv 105 / 106 40% 1 18.03.2027 -
Alejandro Zendejas Club America Aktiv 144 / 133 40% 3 17.03.2027 -
Daniil Frolkin Fakel Aktiv 116 / 118 40% 1 17.03.2027 -
Lorenzo Palmisani Frosinone Aktiv 130 / 122 40% 1 17.03.2027 -
Zach Hemming Chesterfield Aktiv 110 / 107 40% 1 17.03.2027 -
Juan Diego Castillo Vitoria Guimaraes Aktiv 124 / 117 40% 6 13.03.2027 -
Christ Inao Oulaï Fiorentina Aktiv 136 / 131 40% 1 12.03.2027 -
Lennon Miller Udinese Aktiv 127 / 124 40% 1 12.03.2027 -
Antonio Gomis Vizela Aktiv 115 / 131 40% 7 11.03.2027 -
Edoardo Corvi Parma Aktiv 135 / 135 40% 1 11.03.2027 -
Soufiane Rahimi Al Ain Aktiv 143 / 124 40% 2 10.03.2027 -
Daniel Banjaqui Benfica Aktiv 105 / 111 40% 2 08.03.2027 -
Thorgan Nainggolan Mouscron Aktiv 101 / 123 40% 1 08.03.2027 -
James Dornelly Peterborough United Aktiv 98 / 110 40% 1 08.03.2027 -
Daniel Bragança Sporting CP Aktiv 145 / 144 40% 1 08.03.2027 -
Orbelín Pineda Monterrey Aktiv 142 / 134 40% 2 07.03.2027 -
Jordan Amissah Burton Albion Aktiv 103 / 111 40% 1 06.03.2027 -
Vinícius Lira Santos Aktiv 119 / 117 40% 1 04.03.2027 -
Leandro Martins Benfica Aktiv 90 / 95 40% 1 04.03.2027 -
Bertrand Traoré Sunderland Aktiv 127 / 140 40% 1 03.03.2027 -
Alpha Touré FC Metz Aktiv 106 / 115 40% 1 02.03.2027 -
Efraín Álvarez Guadalajara Aktiv 128 / 121 40% 3 01.03.2027 -
Chiquinho Alverca Aktiv 134 / 133 40% 2 01.03.2027 -
Leandro Andrade Polissia Aktiv 130 / 131 40% 2 27.02.2027 -
Theo Bongonda Al-Faisaly Aktiv 134 / 133 40% 1 27.02.2027 -
George Wickens Lincoln City Aktiv 124 / 120 40% 4 26.02.2027 -
Taye Ashby-Hammond Walsall Aktiv 104 / 117 40% 1 26.02.2027 -
Elia Caprile Cagliari Aktiv 153 / 157 40% 1 26.02.2027 -
Michy Fellaini KV Oostende Aktiv 133 / 131 40% 7 20.02.2027 -
Renan Lodi Atlético Mineiro Aktiv 136 / 144 40% 7 20.02.2027 -
Iñaki Peña Panathinaikos Aktiv 140 / 147 40% 2 18.02.2027 -
Nathan Bishop AFC Wimbledon Aktiv 106 / 113 40% 2 18.02.2027 -
Vitor Hugo Lusitânia Lourosa Aktiv 98 / 105 40% 2 16.02.2027 -
Beau Reus Waasland-Beveren Aktiv 126 / 117 40% 1 16.02.2027 -
Mandla Jali SuperSport United Aktiv 119 / 126 40% 3 15.02.2027 -
Pol Tristán Bradford City Aktiv 111 / 122 40% 1 15.02.2027 -
João Carvalho Estoril Praia Aktiv 125 / 136 40% 3 14.02.2027 -
Michael Cooper Sheffield United Aktiv 128 / 136 40% 3 12.02.2027 -
Carl Rushworth Coventry City Aktiv 135 / 139 40% 2 12.02.2027 -
Matthieu Epolo Standard Liege Aktiv 120 / 125 40% 1 12.02.2027 -
João Valido Chaves Aktiv 116 / 116 40% 2 11.02.2027 -
Jesús Ricardo Angulo Toluca Aktiv 137 / 128 40% 3 10.02.2027 -
Matheus Pereira Cruzeiro Aktiv 141 / 135 40% 1 10.02.2027 -
Sam Tickle Wigan Athletic Aktiv 125 / 116 40% 4 07.02.2027 -
Patrick Sequeira Casa Pia Aktiv 119 / 120 40% 4 07.02.2027 -
Petar Stanić Ludogorets Aktiv 136 / 123 40% 1 06.02.2027 -
Killian Cahill Leyton Orient Aktiv 110 / 93 40% 1 05.02.2027 -
Jakub Stolarczyk Leicester City Aktiv 135 / 133 40% 2 03.02.2027 -
Myles Roberts Doncaster Rovers Aktiv 100 / 95 40% 1 03.02.2027 -
Sławomir Abramowicz Jagiellonia Aktiv 116 / 114 40% 1 03.02.2027 -
Alfonso Pastor Maritimo Aktiv 115 / 109 40% 6 02.02.2027 -
Ruslan Neshcheret Dynamo Kyiv Aktiv 116 / 109 40% 1 02.02.2027 -
Andreas Pereira Palmeiras Aktiv 145 / 145 40% 1 28.01.2027 -
Gianluca Prestianni Benfica Aktiv 140 / 144 40% 1 24.01.2027 -
Evidence Billiat Ajax Cape Town Aktiv 111 / 106 40% 1 22.01.2027 -
Jamie Cumming Oxford United Aktiv 124 / 132 40% 1 22.01.2027 -
Pablo Rosario Porto Aktiv 137 / 150 40% 2 21.01.2027 -
Marcelo Allende Mamelodi Sundowns Aktiv 129 / 138 40% 1 21.01.2027 -
Christian Joel Sánchez Leiria Aktiv 118 / 115 40% 3 20.01.2027 -
Anthony Patterson Wrexham Aktiv 128 / 135 40% 4 20.01.2027 -
Hugo Souza Corinthians Aktiv 145 / 136 40% 2 19.01.2027 -
Santi García Gil Vicente Aktiv 125 / 138 40% 3 17.01.2027 -
Nemanja Radonjić Crvena Zvezda Aktiv 138 / 140 40% 1 17.01.2027 -
Enzo Díaz Sport Recife Aktiv 134 / 139 40% 2 09.01.2027 -
Francis Amuzu Grêmio Aktiv 137 / 138 40% 1 07.01.2027 -
Yehvann Diouf OGC Nice Aktiv 148 / 138 40% 1 02.01.2027 -
Will Dennis Milton Keynes Dons Aktiv 100 / 91 40% 2 29.12.2026 -
Dmytro Riznyk Shakhtar Aktiv 138 / 134 40% 1 25.12.2026 -
Matheus Mendes Alverca Aktiv 111 / 129 40% 2 23.12.2026 -
Paulo Henrique Vasco da Gama Aktiv 138 / 130 40% 4 18.12.2026 -
Nuno Santos Sporting CP Aktiv 138 / 148 40% 1 16.12.2026 -
Bruno Brígido America Mineiro Aktiv 107 / 115 76% 1 14.12.2026 Befürworten
Marcel Ruiz Toluca Aktiv 140 / 135 40% 1 14.12.2026 -
Ademir Bahia Abgelehnt 124 / 117 76% 1 01.12.2026 -
Sem Westerveld Zaragoza Aktiv 117 / 108 40% 1 29.11.2026 -
Marcos Antonio Sport Recife Aktiv 135 / 130 40% 3 27.11.2026 -
Ismaël Bennacer Palmeiras Aktiv 152 / 145 40% 1 27.11.2026 -
Vitor Carvalho Braga Aktiv 137 / 144 40% 5 25.11.2026 -
Erik Lira Cruz Azul Aktiv 133 / 127 40% 1 25.11.2026 -
Danilo Botafogo Aktiv 141 / 142 40% 1 25.11.2026 -
William Cruzeiro Aktiv 132 / 125 40% 4 24.11.2026 -
Gustaf Lagerbielke Braga Aktiv 137 / 135 40% 3 24.11.2026 -
Kenny Tete Fulham Abgelehnt 141 / 153 40% 3 24.11.2026 Ablehnen
Martín Tejón Maritimo Aktiv 112 / 126 40% 2 23.11.2026 -
Vinícius Lopes Santa Clara Aktiv 115 / 126 40% 3 22.11.2026 -
Jon Karrikaburu Burgos Aktiv 124 / 120 40% 2 22.11.2026 -
Igor Nikić Mirandés Aktiv 125 / 121 40% 1 21.11.2026 -
Jan Bednarek Porto Aktiv 148 / 158 40% 3 15.11.2026 -
Zé Leite Oliveirense Aktiv 120 / 120 40% 3 13.11.2026 -
Camilo Durán Bloemfontein Celtic Aktiv 118 / 104 40% 3 13.11.2026 -
Nicolò Tresoldi Club Brugge Aktiv 133 / 133 40% 1 13.11.2026 -
Sorriso Famalicao Aktiv 127 / 132 40% 3 12.11.2026 -
Mésaque Djú Portimonense Aktiv 109 / 106 40% 1 12.11.2026 -
Jalen Blesa Rio Ave Aktiv 124 / 103 40% 2 11.11.2026 -
Leonardo Lelo Braga Aktiv 139 / 133 40% 1 10.11.2026 -
Sikou Niakaté Braga Aktiv 129 / 135 40% 3 09.11.2026 -
Lazar Carević Famalicao Aktiv 122 / 134 40% 2 09.11.2026 -
Sergi Altimira Sporting CP Aktiv 142 / 141 40% 3 09.11.2026 -
Tamble Monteiro Rio Ave Aktiv 123 / 133 40% 4 07.11.2026 -
Giorgos Koutsias Famalicao Aktiv 121 / 123 40% 1 07.11.2026 -
Rubén Duarte Pumas UNAM Aktiv 135 / 126 40% 3 04.11.2026 -
Matthew Targett Hull City Aktiv 128 / 135 40% 1 04.11.2026 -
Alfonso Trezza Arouca Aktiv 129 / 134 40% 4 03.11.2026 -
Pablo Ramón Racing Club Aktiv 130 / 126 40% 2 02.11.2026 -
Bright Arrey-Mbi Braga Aktiv 127 / 128 40% 1 02.11.2026 -
Gustavo Silva Vitoria Guimaraes Aktiv 126 / 124 40% 1 01.11.2026 -
Vitinho Botafogo Aktiv 138 / 130 40% 2 31.10.2026 -
Felipe Parra Envigado Aktiv 121 / 122 40% 1 31.10.2026 -
Gabriel Barbosa Farense Aktiv 113 / 94 40% 2 30.10.2026 -
Henrique Araújo Casa Pia Aktiv 127 / 119 40% 2 27.10.2026 -
Óscar Aranda Espanyol Aktiv 120 / 127 40% 1 27.10.2026 -
Ignacio Russo Tigre Aktiv 121 / 134 40% 1 27.10.2026 -
Lucas Veríssimo Santos Aktiv 133 / 141 40% 1 26.10.2026 -
Percy Erasmus SuperSport United Aktiv 123 / 134 40% 3 24.10.2026 -
Figueiredo Alverca Aktiv 129 / 134 40% 3 22.10.2026 -
Lucas Duarte Felgueiras Aktiv 99 / 101 40% 2 20.10.2026 -
Ángelo Preciado Atlético Mineiro Aktiv 134 / 126 40% 1 19.10.2026 -
Fabrício Bruno Cruzeiro Aktiv 142 / 134 40% 3 18.10.2026 -
Javi Sánchez Arouca Aktiv 128 / 130 40% 1 17.10.2026 -
Victor Araujo Veracruz Aktiv 145 / 143 40% 2 14.10.2026 -
Iván Martín Racing Club Aktiv 142 / 145 40% 1 12.10.2026 -
Richard Ledezma Guadalajara Aktiv 135 / 129 40% 1 10.10.2026 -
Luis Ingolotti Atlético Tucumán Aktiv 118 / 129 40% 1 07.10.2026 -
Eduardo Quaresma Sporting CP Aktiv 147 / 131 40% 1 06.10.2026 -
Isidro Pitta Bragantino Aktiv 133 / 129 40% 1 05.10.2026 -
Nathan Trott Cardiff City Aktiv 112 / 115 40% 1 04.10.2026 -
Manuel Baldé Wadi Degla Aktiv 100 / 98 40% 1 30.09.2026 -
Nicolás Sumavil Platense Aktiv 123 / 116 40% 1 30.09.2026 -
Lucas Cañizares Tondela Aktiv 99 / 121 40% 1 30.09.2026 -
Matheus Henrique Cruzeiro Aktiv 132 / 125 40% 1 29.09.2026 -
Zeno Debast Sporting CP Aktiv 137 / 131 40% 1 29.09.2026 -
Luciano Juba Bahia Aktiv 129 / 130 40% 2 28.09.2026 -
Luan Santos Imotski Aktiv 92 / 78 40% 1 26.09.2026 -
Cheikh Sabaly Vancouver Whitecaps Aktiv 129 / 125 40% 1 24.09.2026 -
Dominik Steczyk Académico de Viseu Aktiv 97 / 99 40% 1 24.09.2026 -
Bryan Limbombe Maritimo Aktiv 111 / 99 40% 1 23.09.2026 -
Korede Osundina Casa Pia Aktiv 112 / 109 40% 1 21.09.2026 -
Dylan Nandín Arouca Aktiv 110 / 102 40% 1 19.09.2026 -
Cezary Miszta Rio Ave Aktiv 123 / 133 40% 2 15.09.2026 -
Lucão Gil Vicente Aktiv 119 / 109 40% 1 15.09.2026 -
Richard Ríos Benfica Aktiv 145 / 153 40% 2 12.09.2026 -
Joaquín Piquerez Palmeiras Aktiv 136 / 132 40% 1 12.09.2026 -
Alberto Costa Porto Aktiv 141 / 130 40% 1 11.09.2026 -
Mauro Arambarri River Plate Aktiv 152 / 159 40% 1 08.09.2026 -
Nicolás Fernández Mercau New York City Aktiv 136 / 134 40% 1 08.09.2026 -
Negueba Mirassol Aktiv 118 / 133 40% 1 07.09.2026 -
Nehuén Pérez Porto Aktiv 134 / 130 40% 2 06.09.2026 -
Iván Fresneda Sporting CP Aktiv 132 / 155 40% 1 02.09.2026 -
Gonçalo Oliveira Benfica Aktiv 110 / 98 40% 1 02.08.2026 -
José Sampaio Vizela Aktiv 112 / 110 40% 1 01.08.2026 -
Josh Wynder Benfica Aktiv 103 / 101 40% 1 01.08.2026 -